Impacts TAF Board INFO
FOR SITUATIONAL AWARENESS. NOT TO BE USED FOR FLIGHT PLANNING PURPOSES.
IDs:

KSAN - San Diego Intl Arpt, CA, US

Issued at 1648 UTC 18 Jan 2018
Updated at 1730 UTC 18 Jan 2018
Potential Impact None Slight Moderate High
Time1726Z 18/18Z 18/19Z 18/20Z 18/21Z 18/22Z 18/23Z 19/00Z 19/01Z 19/02Z 19/03Z 19/04Z 19/05Z 19/06Z>>
Type OBS PRVL PRVL PRVL PRVL PRVL PRVL PRVL PRVL PRVL PRVL PRVL PRVL PRVL
VIS 1.25 3 3 3 >6 >6 >6 >6 >6 >6 5 5 5 5
CIG 2 -- -- -- -- -- -- -- -- -- 7 7 7 7
Cover OVX SCT SCT SCT SCT SCT SCT SCT SCT SCT BKN BKN BKN BKN
FltCat LIFR MVFR MVFR MVFR VFR VFR VFR VFR VFR VFR IFR IFR IFR IFR
WX BR BR BR BR -- -- -- -- -- -- BR BR BR BR
WDir 170 200 200 200 290 290 290 290 290 VRB VRB VRB VRB VRB
WSpd 7 7 7 7 10 10 10 10 10 5 3 3 3 3
WGst -- -- -- -- -- -- -- -- -- -- -- -- -- --

Raw TAF
KSAN 181648Z 1817/1918 19007KT 1/4SM FG BKN002
  FM181715 19007KT 1/2SM FG BKN005
  FM181730 19007KT 1SM BR BKN005
  FM181800 20007KT 3SM BR SCT007
  FM182100 29010KT P6SM SCT250
  FM190200 VRB05KT P6SM SCT008 SCT250
  FM190300 VRB03KT 5SM BR BKN007
  FM191200 VRB03KT P6SM OVC015


Raw METAR
KSAN 181726Z 17007KT 1 1/4SM R09/3500VP6000FT BR VV002 14/13 A3016 RMK AO2 T01390133
KSAN 181709Z 18005KT 1/2SM R09/2200V5000FT FG VV002 14/13 A3017 RMK AO2 T01390133
KSAN 181651Z 19005KT 1/4SM R09/1200V3500FT FG VV001 14/14 A3016 RMK AO2 SLP212 T01390139
KSAN 181639Z 20005KT 1/4SM R09/1000V2000FT FG BKN001 BKN002 13/13 A3016 RMK AO2 FG BKN001 T01330133
KSAN 181630Z 18007KT 1/4SM R09/1400V2400FT FG SCT001 BKN003 BKN250 13/13 A3015 RMK AO2 FG SCT001 T01330128
KSAN 181627Z 19008KT 1/2SM R09/1400VP6000FT FG SCT001 BKN005 BKN200 BKN250 14/13 A3015 RMK AO2 VIS N-NE 10 FG SCT001 T01390128
KSAN 181624Z 19007KT 10SM R09/1400VP6000FT FEW001 SCT005 BKN200 BKN250 14/13 A3015 RMK AO2 VIS SE-S-SW-W 3/4 FG FEW001 T01390128
KSAN 181551Z 11004KT 10SM FEW005 SCT200 SCT250 14/10 A3012 RMK AO2 SLP200 T01390100
KSAN 181451Z VRB03KT 10SM FEW005 SCT200 SCT250 13/10 A3011 RMK AO2 SLP194 T01330100 53009

METAR Board
Radar Display
Forecast Discussion

FOR SITUATIONAL AWARENESS. NOT TO BE USED FOR FLIGHT PLANNING PURPOSES.